Watertown, Tennessee
Current Conditions -  °F | °C
As of 5:53 PM on Friday 21 Nov 2014 (Local Time) from KBNA Reporting Station
Overcast Overcast  
Wind Chill: 49°   Ceiling: 7000
Heat Index: 49°   Visibility: 10mi
Dew Point: 23°   Wind: 3mph
Humidity: 36%   Direction: 80°E
Pressure: 30.37"   Gusts: NA
Location:  36.1°N, 86.13°W
Report Text: KBNA 212353Z 08003KT 10SM OVC070 09/M05 A3037 RMK AO2 SLP287 T00941050 10111 20083 56002
Loading
Personal Weather Stations






























Interactive Weather Map New forecast layout! Learn more

10-Day Weather Forecast

Advertisements
Track Severe Weather on mobile